Antonios — SY8410 — position and weather

sailwx.info

Track history (hours):
 
Tides and Currents Weather Stations Pressure Air Temp Water Temp Dewpoint Dewpoint Depression Visibility Wind Speed Wind Dir Waves Ship Positions

Antonios

Last reported at 2015-Aug-01 01:14 UTC. Time now 2015-Aug-02 06:24 UTC.
Position N 36°56' E 026°60'.

Length 57 m; draft 4.1 m.

Type: Tanker. MMSI: 239191300.

Date/timePositionNaut miles runAvg speedWind from/ knotsBaromVisibWave heightAir tempDewpointWater temp
2015-Aug-01 01:14N 36°56' E 026°60'0 0.0
2015-Aug-01 00:33N 36°56' E 026°60'1 0.0
2015-Jul-30 07:30N 36°57' E 027°01'3 0.2
2015-Jul-29 17:33N 36°55' E 026°57'9 9.5
2015-Jul-29 16:33N 36°58' E 026°45'9 9.3
2015-Jul-29 15:33N 37°00' E 026°34'10 9.8
2015-Jul-29 14:33N 37°03' E 026°22'1010.2
2015-Jul-29 13:33N 37°05' E 026°10'10 9.9
2015-Jul-29 12:33N 37°08' E 025°58'10 9.8
2015-Jul-29 11:33N 37°10' E 025°46'10 9.6
2015-Jul-29 10:33N 37°12' E 025°34'9 9.2
2015-Jul-29 09:33N 37°15' E 025°23'10 9.9
2015-Jul-29 08:33N 37°17' E 025°11'1010.0
2015-Jul-29 07:33N 37°20' E 024°59'9 9.4
2015-Jul-29 06:33N 37°22' E 024°47'41 9.7
2015-Jul-29 02:18N 37°35' E 023°58'7 9.9
2015-Jul-29 01:33N 37°37' E 023°49'10 9.6
2015-Jul-29 00:33N 37°44' E 023°40'9 9.3
2015-Jul-28 23:33N 37°49' E 023°31'1010.1
2015-Jul-28 22:33N 37°52' E 023°18'10 9.9
2015-Jul-28 21:32N 37°55' E 023°06'1 0.1
2015-Jul-28 15:26N 37°55' E 023°05'1 1.5
2015-Jul-28 14:33N 37°54' E 023°04'0 0.0
2015-Jul-28 13:31N 37°54' E 023°04'0 0.0
2015-Jul-28 12:25N 37°54' E 023°04'0 0.0
2015-Jul-28 10:23N 37°54' E 023°04'0 0.0
2015-Jul-28 09:30N 37°54' E 023°04'0 0.0
2015-Jul-28 08:30N 37°54' E 023°04'0 0.0
2015-Jul-28 07:33N 37°54' E 023°04'0 0.0
2015-Jul-28 06:33N 37°55' E 023°04'0 0.0
2015-Jul-28 05:22N 37°55' E 023°04'0 0.0
2015-Jul-28 04:33N 37°55' E 023°04'0 0.0
2015-Jul-28 03:30N 37°55' E 023°04'0 0.0
2015-Jul-28 02:31N 37°55' E 023°04'0 0.0
2015-Jul-28 01:31N 37°55' E 023°04'0 0.0
2015-Jul-28 00:27N 37°54' E 023°04'0 0.0
2015-Jul-27 23:25N 37°54' E 023°04'0 0.0
2015-Jul-27 22:33N 37°55' E 023°04'0 0.0
2015-Jul-27 21:30N 37°55' E 023°04'0 0.0
2015-Jul-27 20:33N 37°55' E 023°04'0 0.0
2015-Jul-27 19:33N 37°55' E 023°04'0 0.0
2015-Jul-27 18:33N 37°55' E 023°04'0 0.0
2015-Jul-27 17:33N 37°55' E 023°04'7 7.5
2015-Jul-27 16:33N 37°54' E 023°13'1010.4
2015-Jul-27 15:33N 37°51' E 023°26'1010.1
2015-Jul-27 14:33N 37°50' E 023°39'1010.2
2015-Jul-27 13:33N 37°41' E 023°45'1010.2
2015-Jul-27 12:33N 37°36' E 023°56'13 9.8
2015-Jul-27 11:11N 37°32' E 024°12'2710.3
2015-Jul-27 08:33N 37°22' E 024°44'1010.3
2015-Jul-27 07:33N 37°18' E 024°56'1111.2
2015-Jul-27 06:33N 37°13' E 025°09'1110.6
2015-Jul-27 05:33N 37°08' E 025°20'2 2.3
2015-Jul-27 04:33N 37°06' E 025°22'0 0.0
2015-Jul-27 03:33N 37°06' E 025°22'0 0.0
2015-Jul-27 02:33N 37°06' E 025°22'0 0.0
2015-Jul-27 01:33N 37°06' E 025°22'5 4.9
2015-Jul-27 00:33N 37°03' E 025°18'1010.1
2015-Jul-26 23:33N 36°53' E 025°21'10 9.7
2015-Jul-26 22:33N 36°44' E 025°24'10 9.9
2015-Jul-26 21:32N 36°34' E 025°23'9 9.2
2015-Jul-26 20:33N 36°25' E 025°25'2 1.8
2015-Jul-26 19:33N 36°23' E 025°26'0 0.0
2015-Jul-26 18:32N 36°23' E 025°26'0 0.0
2015-Jul-26 17:31N 36°23' E 025°26'0 0.0
2015-Jul-26 16:33N 36°23' E 025°26'0 0.0
2015-Jul-26 15:33N 36°23' E 025°26'0 0.0
2015-Jul-26 14:32N 36°23' E 025°26'0 0.0
2015-Jul-26 13:32N 36°23' E 025°26'1 0.7
2015-Jul-26 12:33N 36°24' E 025°25'7 6.9
2015-Jul-26 11:32N 36°31' E 025°25'9 9.5
2015-Jul-26 10:33N 36°34' E 025°36'10 9.5
2015-Jul-26 09:33N 36°36' E 025°48'10 9.6
2015-Jul-26 08:33N 36°40' E 025°59'10 9.4
2015-Jul-26 07:28N 36°43' E 026°11'9 9.4
2015-Jul-26 06:33N 36°45' E 026°22'9 9.3
2015-Jul-26 05:33N 36°48' E 026°33'9 9.5
2015-Jul-26 04:33N 36°51' E 026°44'10 9.5
2015-Jul-26 03:33N 36°54' E 026°55'6 5.6
2015-Jul-26 02:33N 36°57' E 027°01'0 0.0
2015-Jul-26 01:33N 36°57' E 027°01'0 0.0
2015-Jul-26 00:33N 36°57' E 027°02'0 0.0
2015-Jul-25 23:31N 36°57' E 027°02'0 0.1
2015-Jul-25 22:33N 36°57' E 027°01'  
2015-Jul-23 15:08N 37°10' E 025°47'5 9.5
2015-Jul-23 14:33N 37°11' E 025°41'9 9.2
2015-Jul-23 13:33N 37°13' E 025°29'8 8.1
2015-Jul-23 12:33N 37°14' E 025°19'9 8.9
2015-Jul-23 11:33N 37°15' E 025°08'9 9.0
2015-Jul-23 10:33N 37°16' E 024°57'60 8.5
2015-Jul-23 03:33N 37°39' E 023°47'9 9.0
2015-Jul-23 02:33N 37°45' E 023°40'9 9.3
2015-Jul-23 01:33N 37°50' E 023°29'1010.1
2015-Jul-23 00:32N 37°52' E 023°17'9 8.7
2015-Jul-22 23:27N 37°55' E 023°05'0 0.0
2015-Jul-22 21:16N 37°55' E 023°05'0 0.0
2015-Jul-22 19:13N 37°55' E 023°05'0 0.0
2015-Jul-22 18:29N 37°55' E 023°05'8 8.2
2015-Jul-22 17:33N 37°49' E 023°11'1010.3
2015-Jul-22 16:33N 37°40' E 023°19'1010.1
2015-Jul-22 15:33N 37°39' E 023°31'1010.3
2015-Jul-22 14:33N 37°37' E 023°44'50 7.0
2015-Jul-22 07:26N 37°22' E 024°44'8 9.3
2015-Jul-22 06:33N 37°18' E 024°53'10 9.8
2015-Jul-22 05:33N 37°14' E 025°05'1010.0
2015-Jul-22 04:33N 37°10' E 025°16'6 6.4
2015-Jul-22 03:33N 37°06' E 025°22'0 0.0
2015-Jul-22 02:33N 37°06' E 025°22'0 0.0
2015-Jul-22 01:33N 37°06' E 025°22'  
Track history (hours):
 
Tides and Currents Weather Stations Pressure Air Temp Water Temp Dewpoint Dewpoint Depression Visibility Wind Speed Wind Dir Waves Ship Positions

Antonios

Last reported at 2015-Aug-01 01:14 UTC. Time now 2015-Aug-02 06:24 UTC.
Position N 36°56' E 026°60'.

Length 57 m; draft 4.1 m.

Type: Tanker. MMSI: 239191300.

Date/timePositionNaut miles runAvg speedWind from/ knotsBaromVisibWave heightAir tempDewpointWater temp
2015-Aug-01 01:14N 36°56' E 026°60'0 0.0
2015-Aug-01 00:33N 36°56' E 026°60'1 0.0
2015-Jul-30 07:30N 36°57' E 027°01'3 0.2
2015-Jul-29 17:33N 36°55' E 026°57'9 9.5
2015-Jul-29 16:33N 36°58' E 026°45'9 9.3
2015-Jul-29 15:33N 37°00' E 026°34'10 9.8
2015-Jul-29 14:33N 37°03' E 026°22'1010.2
2015-Jul-29 13:33N 37°05' E 026°10'10 9.9
2015-Jul-29 12:33N 37°08' E 025°58'10 9.8
2015-Jul-29 11:33N 37°10' E 025°46'10 9.6
2015-Jul-29 10:33N 37°12' E 025°34'9 9.2
2015-Jul-29 09:33N 37°15' E 025°23'10 9.9
2015-Jul-29 08:33N 37°17' E 025°11'1010.0
2015-Jul-29 07:33N 37°20' E 024°59'9 9.4
2015-Jul-29 06:33N 37°22' E 024°47'41 9.7
2015-Jul-29 02:18N 37°35' E 023°58'7 9.9
2015-Jul-29 01:33N 37°37' E 023°49'10 9.6
2015-Jul-29 00:33N 37°44' E 023°40'9 9.3
2015-Jul-28 23:33N 37°49' E 023°31'1010.1
2015-Jul-28 22:33N 37°52' E 023°18'10 9.9
2015-Jul-28 21:32N 37°55' E 023°06'1 0.1
2015-Jul-28 15:26N 37°55' E 023°05'1 1.5
2015-Jul-28 14:33N 37°54' E 023°04'0 0.0
2015-Jul-28 13:31N 37°54' E 023°04'0 0.0
2015-Jul-28 12:25N 37°54' E 023°04'0 0.0
2015-Jul-28 10:23N 37°54' E 023°04'0 0.0
2015-Jul-28 09:30N 37°54' E 023°04'0 0.0
2015-Jul-28 08:30N 37°54' E 023°04'0 0.0
2015-Jul-28 07:33N 37°54' E 023°04'0 0.0
2015-Jul-28 06:33N 37°55' E 023°04'0 0.0
2015-Jul-28 05:22N 37°55' E 023°04'0 0.0
2015-Jul-28 04:33N 37°55' E 023°04'0 0.0
2015-Jul-28 03:30N 37°55' E 023°04'0 0.0
2015-Jul-28 02:31N 37°55' E 023°04'0 0.0
2015-Jul-28 01:31N 37°55' E 023°04'0 0.0
2015-Jul-28 00:27N 37°54' E 023°04'0 0.0
2015-Jul-27 23:25N 37°54' E 023°04'0 0.0
2015-Jul-27 22:33N 37°55' E 023°04'0 0.0
2015-Jul-27 21:30N 37°55' E 023°04'0 0.0
2015-Jul-27 20:33N 37°55' E 023°04'0 0.0
2015-Jul-27 19:33N 37°55' E 023°04'0 0.0
2015-Jul-27 18:33N 37°55' E 023°04'0 0.0
2015-Jul-27 17:33N 37°55' E 023°04'7 7.5
2015-Jul-27 16:33N 37°54' E 023°13'1010.4
2015-Jul-27 15:33N 37°51' E 023°26'1010.1
2015-Jul-27 14:33N 37°50' E 023°39'1010.2
2015-Jul-27 13:33N 37°41' E 023°45'1010.2
2015-Jul-27 12:33N 37°36' E 023°56'13 9.8
2015-Jul-27 11:11N 37°32' E 024°12'2710.3
2015-Jul-27 08:33N 37°22' E 024°44'1010.3
2015-Jul-27 07:33N 37°18' E 024°56'1111.2
2015-Jul-27 06:33N 37°13' E 025°09'1110.6
2015-Jul-27 05:33N 37°08' E 025°20'2 2.3
2015-Jul-27 04:33N 37°06' E 025°22'0 0.0
2015-Jul-27 03:33N 37°06' E 025°22'0 0.0
2015-Jul-27 02:33N 37°06' E 025°22'0 0.0
2015-Jul-27 01:33N 37°06' E 025°22'5 4.9
2015-Jul-27 00:33N 37°03' E 025°18'1010.1
2015-Jul-26 23:33N 36°53' E 025°21'10 9.7
2015-Jul-26 22:33N 36°44' E 025°24'10 9.9
2015-Jul-26 21:32N 36°34' E 025°23'9 9.2
2015-Jul-26 20:33N 36°25' E 025°25'2 1.8
2015-Jul-26 19:33N 36°23' E 025°26'0 0.0
2015-Jul-26 18:32N 36°23' E 025°26'0 0.0
2015-Jul-26 17:31N 36°23' E 025°26'0 0.0
2015-Jul-26 16:33N 36°23' E 025°26'0 0.0
2015-Jul-26 15:33N 36°23' E 025°26'0 0.0
2015-Jul-26 14:32N 36°23' E 025°26'0 0.0
2015-Jul-26 13:32N 36°23' E 025°26'1 0.7
2015-Jul-26 12:33N 36°24' E 025°25'7 6.9
2015-Jul-26 11:32N 36°31' E 025°25'9 9.5
2015-Jul-26 10:33N 36°34' E 025°36'10 9.5
2015-Jul-26 09:33N 36°36' E 025°48'10 9.6
2015-Jul-26 08:33N 36°40' E 025°59'10 9.4
2015-Jul-26 07:28N 36°43' E 026°11'9 9.4
2015-Jul-26 06:33N 36°45' E 026°22'9 9.3
2015-Jul-26 05:33N 36°48' E 026°33'9 9.5
2015-Jul-26 04:33N 36°51' E 026°44'10 9.5
2015-Jul-26 03:33N 36°54' E 026°55'6 5.6
2015-Jul-26 02:33N 36°57' E 027°01'0 0.0
2015-Jul-26 01:33N 36°57' E 027°01'0 0.0
2015-Jul-26 00:33N 36°57' E 027°02'0 0.0
2015-Jul-25 23:31N 36°57' E 027°02'0 0.1
2015-Jul-25 22:33N 36°57' E 027°01'  
2015-Jul-23 15:08N 37°10' E 025°47'5 9.5
2015-Jul-23 14:33N 37°11' E 025°41'9 9.2
2015-Jul-23 13:33N 37°13' E 025°29'8 8.1
2015-Jul-23 12:33N 37°14' E 025°19'9 8.9
2015-Jul-23 11:33N 37°15' E 025°08'9 9.0
2015-Jul-23 10:33N 37°16' E 024°57'60 8.5
2015-Jul-23 03:33N 37°39' E 023°47'9 9.0
2015-Jul-23 02:33N 37°45' E 023°40'9 9.3
2015-Jul-23 01:33N 37°50' E 023°29'1010.1
2015-Jul-23 00:32N 37°52' E 023°17'9 8.7
2015-Jul-22 23:27N 37°55' E 023°05'0 0.0
2015-Jul-22 21:16N 37°55' E 023°05'0 0.0
2015-Jul-22 19:13N 37°55' E 023°05'0 0.0
2015-Jul-22 18:29N 37°55' E 023°05'8 8.2
2015-Jul-22 17:33N 37°49' E 023°11'1010.3
2015-Jul-22 16:33N 37°40' E 023°19'1010.1
2015-Jul-22 15:33N 37°39' E 023°31'1010.3
2015-Jul-22 14:33N 37°37' E 023°44'50 7.0
2015-Jul-22 07:26N 37°22' E 024°44'8 9.3
2015-Jul-22 06:33N 37°18' E 024°53'10 9.8
2015-Jul-22 05:33N 37°14' E 025°05'1010.0
2015-Jul-22 04:33N 37°10' E 025°16'6 6.4
2015-Jul-22 03:33N 37°06' E 025°22'0 0.0
2015-Jul-22 02:33N 37°06' E 025°22'0 0.0
2015-Jul-22 01:33N 37°06' E 025°22'  

Dump ship's entire track history